Friday, October 31, 2014
12:56 UTC
  |  Log In   |  Register Free
Airport Search:

Raleigh-Durham International Airport
(KRDU)

Airport information sponsored by:
Landmark Aviation - RDU at Raleigh-Durham International (KRDU), Raleigh/Durham, NC
FAA data valid effective September 18, 2014 - November 13, 2014 (unless otherwise noted).

 
 
 
 
 
 
 
 
 
 
 
 
 
 

Current Aviation Weather for Raleigh-Durham International Airport (KRDU)

The most recent METAR observation for KRDU was updated at: 1217
METAR Summary (Translated METAR)
KRDU
311151Z 02005KT 10SM FEW120 06/03 A2996 RMK AO2 SLP145 T00610033 10083 20056 55004
KIGX
311156Z AUTO VRB03KT 10SM CLR 06/03 A2997 RMK AO2 SLP146 T00560028 10089 20056 55005
(14 nm NW from KRDU)
KTTA
311155Z AUTO 00000KT 5SM BR CLR 03/03 A2995 RMK AO2 T00300030 10071 20030
(23.4 nm SW from KRDU)
TAF Summary (Translated TAF)
KRDU
311140Z 3112/0112 03006KT P6SM SCT250 FM010900 06003KT 5SM -SHRA BKN015 BKN040 OVC080
  Airport Weather Conditions for KRDU

 Current Weather at RDU
43° F
A Few Clouds
North winds at 5.8 mph
RDU NOAA Radar

Pressure: 29.96 in
Humidity: 82%
Wind: North at 5.8 MPH (5 KT)
Dew Point: 37.9°F
Visibility: 10.00 mi


Airport Weather Forecast for KRDU

Translated METAR and TAF for KRDU
Translated METAR for KRDU (1251 UTC 31 October 2014)
found at http://aviationweather.gov/adds/metars/
 
METAR text: KRDU 311151Z 02005KT 10SM FEW120 06/03 A2996 RMK AO2 SLP145 T00610033 10083 20056 55004
Conditions at: KRDU (RALEIGH/DURHAM , NC, US) observed 1151 UTC 31 October 2014
Temperature: 6.1°C (43°F)
Dewpoint: 3.3°C (38°F) [RH = 82%]
Pressure (altimeter): 29.96 inches Hg (1014.6 mb)
[Sea-level pressure: 1014.5 mb]
Winds: from the NNE (20 degrees) at 6 MPH (5 knots; 2.6 m/s)
Visibility: 10 or more miles (16+ km)
Ceiling: at least 12,000 feet AGL
Clouds: few clouds at 12000 feet AGL
Weather: no significant weather observed at this time
Translated TAF for KRDU
Forecast for: KRDU (RALEIGH/DURHAM , NC, US)
TAF Text: KRDU 311140Z 3112/0112 03006KT P6SM SCT250
Forecast period: 1200 UTC 31 October 2014 to 0900 UTC 01 November 2014
Forecast type: FROM: standard forecast or significant change
Winds: from the NNE (30 degrees) at 7 MPH (6 knots; 3.1 m/s)
Visibility: 6 or more miles (10+ km)
Clouds: scattered clouds at 25000 feet AGL
Weather: no significant weather forecast for this period
TAF Text: FM010900 06003KT 5SM -SHRA BKN015 BKN040 OVC080
Forecast period: 0900 to 1200 UTC 01 November 2014
Forecast type: FROM: standard forecast or significant change
Winds: from the ENE (60 degrees) at 3 MPH (3 knots; 1.6 m/s)
Visibility: 5 miles (8 km)
Ceiling: 1500 feet AGL
Clouds: broken clouds at 1500 feet AGL
broken clouds at 4000 feet AGL
overcast cloud deck at 8000 feet AGL
Weather: -SHRA  (light rain showers)

Find All Airport Services Find A Hotel Find A Rental Car Find A Golf Course Find A Restaurant $100 Hamburger



FBO's on the Field
FBO Company Facility Photos Services Transportation Aviation Fuel Prices: Prices include tax
Catering Weather Repair Courtesy Rental Type 100LL JetA JetA+ MOGAS 8087
 
Landmark Aviation - RDU

Landmark Aviation - RDU logo
Currently rated 4.4 by 2 people
FS:
Last Updated: Oct-31
Login to update fuel prices
SS:
Contact Landmark Aviation - RDUMore FBO Information
 
TAC Air - RDU

Currently rated 1.8 by 3 people
FS:Avfuel
Last Updated: Oct-30
Login to update fuel prices
SS:
Contact TAC Air - RDUMore FBO Information
 
Add another FBO Facility Photos Catering Weather Repair Courtesy Rental Type 100LL JetA JetA+ MOGAS 8087
Services Transportation Aviation Fuel Prices: Prices include tax


model-print
model-print
model-print
model-print